sensor_id;sensor_type;location;lat;lon;timestamp;P1;P2;P0
46381;PMS5003;66809;52.974;-2.514;2023-12-04T00:01:43;16.416666666666668;15.383333333333333;
46381;PMS5003;66809;52.974;-2.514;2023-12-04T00:03:41;16.233333333333334;15.183333333333334;
46381;PMS5003;66809;52.974;-2.514;2023-12-04T00:05:42;16.033333333333335;15.05;
46381;PMS5003;66809;52.974;-2.514;2023-12-04T00:07:40;15.666666666666666;14.783333333333333;
46381;PMS5003;66809;52.974;-2.514;2023-12-04T00:09:41;15.65;14.766666666666667;
46381;PMS5003;66809;52.974;-2.514;2023-12-04T00:11:41;15.5;14.616666666666667;
46381;PMS5003;66809;52.974;-2.514;2023-12-04T00:13:41;15.416666666666666;14.55;
46381;PMS5003;66809;52.974;-2.514;2023-12-04T00:15:40;15.266666666666667;14.416666666666666;
46381;PMS5003;66809;52.974;-2.514;2023-12-04T00:17:41;15.2;14.333333333333334;
46381;PMS5003;66809;52.974;-2.514;2023-12-04T00:19:41;15.2;14.3;
46381;PMS5003;66809;52.974;-2.514;2023-12-04T00:21:41;15.15;14.25;
46381;PMS5003;66809;52.974;-2.514;2023-12-04T00:23:40;15.2;14.3;
46381;PMS5003;66809;52.974;-2.514;2023-12-04T00:25:41;15.083333333333334;14.2;
46381;PMS5003;66809;52.974;-2.514;2023-12-04T00:27:41;15.016666666666667;14.133333333333333;
46381;PMS5003;66809;52.974;-2.514;2023-12-04T00:29:40;14.883333333333333;14.083333333333334;
46381;PMS5003;66809;52.974;-2.514;2023-12-04T00:31:41;14.8;14.016666666666667;
46381;PMS5003;66809;52.974;-2.514;2023-12-04T00:33:41;14.8;14.033333333333333;
46381;PMS5003;66809;52.974;-2.514;2023-12-04T00:35:40;14.666666666666666;13.9;
46381;PMS5003;66809;52.974;-2.514;2023-12-04T00:37:41;14.583333333333334;13.8;
46381;PMS5003;66809;52.974;-2.514;2023-12-04T00:39:41;14.45;13.683333333333334;
46381;PMS5003;66809;52.974;-2.514;2023-12-04T00:41:40;14.3;13.533333333333333;
46381;PMS5003;66809;52.974;-2.514;2023-12-04T00:43:41;14.183333333333334;13.483333333333333;
46381;PMS5003;66809;52.974;-2.514;2023-12-04T00:45:41;14.133333333333333;13.416666666666666;
46381;PMS5003;66809;52.974;-2.514;2023-12-04T00:47:41;14.033333333333333;13.3;
46381;PMS5003;66809;52.974;-2.514;2023-12-04T00:49:40;14.016666666666667;13.283333333333333;
46381;PMS5003;66809;52.974;-2.514;2023-12-04T00:51:41;14.033333333333333;13.266666666666667;
46381;PMS5003;66809;52.974;-2.514;2023-12-04T00:53:41;14.033333333333333;13.266666666666667;
46381;PMS5003;66809;52.974;-2.514;2023-12-04T00:55:40;13.85;13.1;
46381;PMS5003;66809;52.974;-2.514;2023-12-04T00:57:40;13.8;13.016666666666667;
46381;PMS5003;66809;52.974;-2.514;2023-12-04T00:59:41;13.816666666666666;13.05;
46381;PMS5003;66809;52.974;-2.514;2023-12-04T01:01:41;13.816666666666666;13.016666666666667;
46381;PMS5003;66809;52.974;-2.514;2023-12-04T01:03:40;13.833333333333334;13.0;
46381;PMS5003;66809;52.974;-2.514;2023-12-04T01:05:41;13.933333333333334;13.083333333333334;
46381;PMS5003;66809;52.974;-2.514;2023-12-04T01:07:41;13.966666666666667;13.133333333333333;
46381;PMS5003;66809;52.974;-2.514;2023-12-04T01:09:40;13.9;13.016666666666667;
46381;PMS5003;66809;52.974;-2.514;2023-12-04T01:11:41;13.983333333333333;13.066666666666666;
46381;PMS5003;66809;52.974;-2.514;2023-12-04T01:13:41;13.85;12.966666666666667;
46381;PMS5003;66809;52.974;-2.514;2023-12-04T01:15:41;13.883333333333333;12.966666666666667;
46381;PMS5003;66809;52.974;-2.514;2023-12-04T01:17:41;13.8;12.933333333333334;
46381;PMS5003;66809;52.974;-2.514;2023-12-04T01:19:41;13.75;12.883333333333333;
46381;PMS5003;66809;52.974;-2.514;2023-12-04T01:21:41;13.616666666666667;12.783333333333333;
46381;PMS5003;66809;52.974;-2.514;2023-12-04T01:23:40;13.533333333333333;12.7;
46381;PMS5003;66809;52.974;-2.514;2023-12-04T01:25:41;13.516666666666667;12.7;
46381;PMS5003;66809;52.974;-2.514;2023-12-04T01:27:41;13.55;12.783333333333333;
46381;PMS5003;66809;52.974;-2.514;2023-12-04T01:29:40;13.55;12.8;
46381;PMS5003;66809;52.974;-2.514;2023-12-04T01:31:41;13.516666666666667;12.783333333333333;
46381;PMS5003;66809;52.974;-2.514;2023-12-04T01:33:41;13.5;12.75;
46381;PMS5003;66809;52.974;-2.514;2023-12-04T01:35:40;13.583333333333334;12.816666666666666;
46381;PMS5003;66809;52.974;-2.514;2023-12-04T01:37:41;13.733333333333333;12.9;
46381;PMS5003;66809;52.974;-2.514;2023-12-04T01:39:41;13.9;13.033333333333333;
46381;PMS5003;66809;52.974;-2.514;2023-12-04T01:41:40;13.9;13.033333333333333;
46381;PMS5003;66809;52.974;-2.514;2023-12-04T01:43:41;13.883333333333333;13.033333333333333;
46381;PMS5003;66809;52.974;-2.514;2023-12-04T01:45:41;13.916666666666666;13.066666666666666;
46381;PMS5003;66809;52.974;-2.514;2023-12-04T01:47:41;14.033333333333333;13.183333333333334;
46381;PMS5003;66809;52.974;-2.514;2023-12-04T01:49:41;14.033333333333333;13.2;
46381;PMS5003;66809;52.974;-2.514;2023-12-04T01:51:41;14.1;13.25;
46381;PMS5003;66809;52.974;-2.514;2023-12-04T01:53:41;14.15;13.3;
46381;PMS5003;66809;52.974;-2.514;2023-12-04T01:55:41;14.266666666666667;13.366666666666667;
46381;PMS5003;66809;52.974;-2.514;2023-12-04T01:57:41;14.333333333333334;13.483333333333333;
46381;PMS5003;66809;52.974;-2.514;2023-12-04T01:59:41;14.366666666666667;13.516666666666667;
46381;PMS5003;66809;52.974;-2.514;2023-12-04T02:01:41;14.266666666666667;13.433333333333334;
46381;PMS5003;66809;52.974;-2.514;2023-12-04T02:03:41;14.216666666666667;13.433333333333334;
46381;PMS5003;66809;52.974;-2.514;2023-12-04T02:05:41;14.1;13.316666666666666;
46381;PMS5003;66809;52.974;-2.514;2023-12-04T02:07:41;14.05;13.266666666666667;
46381;PMS5003;66809;52.974;-2.514;2023-12-04T02:09:40;14.0;13.233333333333333;
46381;PMS5003;66809;52.974;-2.514;2023-12-04T02:11:41;13.916666666666666;13.133333333333333;
46381;PMS5003;66809;52.974;-2.514;2023-12-04T02:13:41;13.983333333333333;13.166666666666666;
46381;PMS5003;66809;52.974;-2.514;2023-12-04T02:15:41;13.966666666666667;13.183333333333334;
46381;PMS5003;66809;52.974;-2.514;2023-12-04T02:17:41;13.916666666666666;13.116666666666667;
46381;PMS5003;66809;52.974;-2.514;2023-12-04T02:19:40;13.866666666666667;13.05;
46381;PMS5003;66809;52.974;-2.514;2023-12-04T02:21:41;13.783333333333333;12.95;
46381;PMS5003;66809;52.974;-2.514;2023-12-04T02:23:41;13.7;12.85;
46381;PMS5003;66809;52.974;-2.514;2023-12-04T02:25:41;13.666666666666666;12.783333333333333;
46381;PMS5003;66809;52.974;-2.514;2023-12-04T02:27:43;13.55;12.666666666666666;
46381;PMS5003;66809;52.974;-2.514;2023-12-04T02:29:44;13.383333333333333;12.5;
46381;PMS5003;66809;52.974;-2.514;2023-12-04T02:31:41;13.283333333333333;12.383333333333333;
46381;PMS5003;66809;52.974;-2.514;2023-12-04T02:33:41;13.166666666666666;12.266666666666667;
46381;PMS5003;66809;52.974;-2.514;2023-12-04T02:35:41;13.0;12.1;
46381;PMS5003;66809;52.974;-2.514;2023-12-04T02:37:42;12.766666666666667;11.933333333333334;
46381;PMS5003;66809;52.974;-2.514;2023-12-04T02:39:41;12.5;11.7;
46381;PMS5003;66809;52.974;-2.514;2023-12-04T02:41:40;12.333333333333334;11.55;
46381;PMS5003;66809;52.974;-2.514;2023-12-04T02:43:41;12.116666666666667;11.333333333333334;
46381;PMS5003;66809;52.974;-2.514;2023-12-04T02:45:41;11.85;11.133333333333333;
46381;PMS5003;66809;52.974;-2.514;2023-12-04T02:47:40;11.566666666666666;10.866666666666667;
46381;PMS5003;66809;52.974;-2.514;2023-12-04T02:49:41;11.333333333333334;10.633333333333333;
46381;PMS5003;66809;52.974;-2.514;2023-12-04T02:51:41;11.133333333333333;10.433333333333334;
46381;PMS5003;66809;52.974;-2.514;2023-12-04T02:53:41;10.883333333333333;10.2;
46381;PMS5003;66809;52.974;-2.514;2023-12-04T02:55:40;10.633333333333333;10.016666666666667;
46381;PMS5003;66809;52.974;-2.514;2023-12-04T02:57:41;10.466666666666667;9.833333333333334;
46381;PMS5003;66809;52.974;-2.514;2023-12-04T02:59:41;10.316666666666666;9.65;
46381;PMS5003;66809;52.974;-2.514;2023-12-04T03:01:40;10.233333333333333;9.533333333333333;
46381;PMS5003;66809;52.974;-2.514;2023-12-04T03:03:41;10.1;9.4;
46381;PMS5003;66809;52.974;-2.514;2023-12-04T03:05:41;9.966666666666667;9.283333333333333;
46381;PMS5003;66809;52.974;-2.514;2023-12-04T03:07:40;9.866666666666667;9.183333333333334;
46381;PMS5003;66809;52.974;-2.514;2023-12-04T03:09:41;9.733333333333333;9.05;
46381;PMS5003;66809;52.974;-2.514;2023-12-04T03:11:41;9.683333333333334;9.033333333333333;
46381;PMS5003;66809;52.974;-2.514;2023-12-04T03:13:41;9.616666666666667;8.933333333333334;
46381;PMS5003;66809;52.974;-2.514;2023-12-04T03:15:41;9.55;8.833333333333334;
46381;PMS5003;66809;52.974;-2.514;2023-12-04T03:17:40;9.516666666666667;8.783333333333333;
46381;PMS5003;66809;52.974;-2.514;2023-12-04T03:19:41;9.383333333333333;8.683333333333334;
46381;PMS5003;66809;52.974;-2.514;2023-12-04T03:21:41;9.4;8.7;
46381;PMS5003;66809;52.974;-2.514;2023-12-04T03:23:40;9.333333333333334;8.65;
46381;PMS5003;66809;52.974;-2.514;2023-12-04T03:25:40;9.233333333333333;8.6;
46381;PMS5003;66809;52.974;-2.514;2023-12-04T03:27:41;9.166666666666666;8.55;
46381;PMS5003;66809;52.974;-2.514;2023-12-04T03:29:41;9.183333333333334;8.566666666666666;
46381;PMS5003;66809;52.974;-2.514;2023-12-04T03:31:40;9.166666666666666;8.55;
46381;PMS5003;66809;52.974;-2.514;2023-12-04T03:33:41;9.1;8.516666666666667;
46381;PMS5003;66809;52.974;-2.514;2023-12-04T03:35:41;9.1;8.5;
46381;PMS5003;66809;52.974;-2.514;2023-12-04T03:37:40;9.016666666666667;8.45;
46381;PMS5003;66809;52.974;-2.514;2023-12-04T03:39:41;9.0;8.45;
46381;PMS5003;66809;52.974;-2.514;2023-12-04T03:41:41;8.966666666666667;8.45;
46381;PMS5003;66809;52.974;-2.514;2023-12-04T03:43:41;9.016666666666667;8.483333333333333;
46381;PMS5003;66809;52.974;-2.514;2023-12-04T03:45:40;9.1;8.533333333333333;
46381;PMS5003;66809;52.974;-2.514;2023-12-04T03:47:41;9.2;8.616666666666667;
46381;PMS5003;66809;52.974;-2.514;2023-12-04T03:49:41;9.216666666666667;8.65;
46381;PMS5003;66809;52.974;-2.514;2023-12-04T03:51:40;9.183333333333334;8.65;
46381;PMS5003;66809;52.974;-2.514;2023-12-04T03:53:41;9.183333333333334;8.683333333333334;
46381;PMS5003;66809;52.974;-2.514;2023-12-04T03:55:41;9.233333333333333;8.733333333333333;
46381;PMS5003;66809;52.974;-2.514;2023-12-04T03:57:41;9.283333333333333;8.766666666666667;
46381;PMS5003;66809;52.974;-2.514;2023-12-04T03:59:41;9.25;8.75;
46381;PMS5003;66809;52.974;-2.514;2023-12-04T04:01:41;9.233333333333333;8.75;
46381;PMS5003;66809;52.974;-2.514;2023-12-04T04:03:41;9.266666666666667;8.783333333333333;
46381;PMS5003;66809;52.974;-2.514;2023-12-04T04:05:40;9.316666666666666;8.816666666666666;
46381;PMS5003;66809;52.974;-2.514;2023-12-04T04:07:41;9.266666666666667;8.783333333333333;
46381;PMS5003;66809;52.974;-2.514;2023-12-04T04:09:41;9.25;8.8;
46381;PMS5003;66809;52.974;-2.514;2023-12-04T04:11:41;9.233333333333333;8.766666666666667;
46381;PMS5003;66809;52.974;-2.514;2023-12-04T04:13:41;9.166666666666666;8.75;
46381;PMS5003;66809;52.974;-2.514;2023-12-04T04:15:40;9.1;8.7;
46381;PMS5003;66809;52.974;-2.514;2023-12-04T04:17:41;9.0;8.633333333333333;
46381;PMS5003;66809;52.974;-2.514;2023-12-04T04:19:41;8.983333333333333;8.616666666666667;
46381;PMS5003;66809;52.974;-2.514;2023-12-04T04:21:41;8.95;8.566666666666666;
46381;PMS5003;66809;52.974;-2.514;2023-12-04T04:23:40;8.883333333333333;8.516666666666667;
46381;PMS5003;66809;52.974;-2.514;2023-12-04T04:25:41;8.816666666666666;8.45;
46381;PMS5003;66809;52.974;-2.514;2023-12-04T04:27:41;8.716666666666667;8.35;
46381;PMS5003;66809;52.974;-2.514;2023-12-04T04:29:41;8.683333333333334;8.316666666666666;
46381;PMS5003;66809;52.974;-2.514;2023-12-04T04:31:40;8.633333333333333;8.283333333333333;
46381;PMS5003;66809;52.974;-2.514;2023-12-04T04:33:41;8.583333333333334;8.216666666666667;
46381;PMS5003;66809;52.974;-2.514;2023-12-04T04:35:41;8.516666666666667;8.166666666666666;
46381;PMS5003;66809;52.974;-2.514;2023-12-04T04:37:41;8.433333333333334;8.083333333333334;
46381;PMS5003;66809;52.974;-2.514;2023-12-04T04:39:40;8.35;8.016666666666667;
46381;PMS5003;66809;52.974;-2.514;2023-12-04T04:41:41;8.35;8.016666666666667;
46381;PMS5003;66809;52.974;-2.514;2023-12-04T04:43:41;8.3;7.966666666666667;
46381;PMS5003;66809;52.974;-2.514;2023-12-04T04:45:41;8.183333333333334;7.866666666666666;
46381;PMS5003;66809;52.974;-2.514;2023-12-04T04:47:40;8.066666666666666;7.766666666666667;
46381;PMS5003;66809;52.974;-2.514;2023-12-04T04:49:41;8.016666666666667;7.716666666666667;
46381;PMS5003;66809;52.974;-2.514;2023-12-04T04:51:41;7.966666666666667;7.683333333333334;
46381;PMS5003;66809;52.974;-2.514;2023-12-04T04:53:41;7.95;7.65;
46381;PMS5003;66809;52.974;-2.514;2023-12-04T04:55:40;7.933333333333334;7.6;
46381;PMS5003;66809;52.974;-2.514;2023-12-04T04:57:41;7.8;7.5;
46381;PMS5003;66809;52.974;-2.514;2023-12-04T04:59:41;7.75;7.466666666666667;
46381;PMS5003;66809;52.974;-2.514;2023-12-04T05:01:41;7.633333333333334;7.383333333333334;
46381;PMS5003;66809;52.974;-2.514;2023-12-04T05:03:40;7.616666666666666;7.366666666666666;
46381;PMS5003;66809;52.974;-2.514;2023-12-04T05:05:41;7.5;7.266666666666667;
46381;PMS5003;66809;52.974;-2.514;2023-12-04T05:07:41;7.516666666666667;7.233333333333333;
46381;PMS5003;66809;52.974;-2.514;2023-12-04T05:09:40;7.516666666666667;7.216666666666667;
46381;PMS5003;66809;52.974;-2.514;2023-12-04T05:11:41;7.4;7.133333333333334;
46381;PMS5003;66809;52.974;-2.514;2023-12-04T05:13:41;7.316666666666666;7.066666666666666;
46381;PMS5003;66809;52.974;-2.514;2023-12-04T05:15:41;7.25;7.016666666666667;
46381;PMS5003;66809;52.974;-2.514;2023-12-04T05:17:41;7.25;6.966666666666667;
46381;PMS5003;66809;52.974;-2.514;2023-12-04T05:19:40;7.2;6.9;
46381;PMS5003;66809;52.974;-2.514;2023-12-04T05:21:41;7.116666666666666;6.85;
46381;PMS5003;66809;52.974;-2.514;2023-12-04T05:23:41;7.05;6.783333333333333;
46381;PMS5003;66809;52.974;-2.514;2023-12-04T05:25:40;7.016666666666667;6.75;
46381;PMS5003;66809;52.974;-2.514;2023-12-04T05:27:41;7.033333333333333;6.766666666666667;
46381;PMS5003;66809;52.974;-2.514;2023-12-04T05:29:41;6.966666666666667;6.7;
46381;PMS5003;66809;52.974;-2.514;2023-12-04T05:31:40;6.95;6.65;
46381;PMS5003;66809;52.974;-2.514;2023-12-04T05:33:41;6.883333333333334;6.6;
46381;PMS5003;66809;52.974;-2.514;2023-12-04T05:35:41;6.816666666666666;6.55;
46381;PMS5003;66809;52.974;-2.514;2023-12-04T05:37:40;6.916666666666667;6.633333333333334;
46381;PMS5003;66809;52.974;-2.514;2023-12-04T05:39:41;6.933333333333334;6.616666666666666;
46381;PMS5003;66809;52.974;-2.514;2023-12-04T05:41:41;6.833333333333333;6.516666666666667;
46381;PMS5003;66809;52.974;-2.514;2023-12-04T05:43:41;6.816666666666666;6.5;
46381;PMS5003;66809;52.974;-2.514;2023-12-04T05:45:40;6.833333333333333;6.516666666666667;
46381;PMS5003;66809;52.974;-2.514;2023-12-04T05:47:41;6.833333333333333;6.516666666666667;
46381;PMS5003;66809;52.974;-2.514;2023-12-04T05:49:41;6.833333333333333;6.516666666666667;
46381;PMS5003;66809;52.974;-2.514;2023-12-04T05:51:41;6.783333333333333;6.466666666666667;
46381;PMS5003;66809;52.974;-2.514;2023-12-04T05:53:41;6.733333333333333;6.416666666666667;
46381;PMS5003;66809;52.974;-2.514;2023-12-04T05:55:41;6.633333333333334;6.35;
46381;PMS5003;66809;52.974;-2.514;2023-12-04T05:57:41;6.6;6.316666666666666;
46381;PMS5003;66809;52.974;-2.514;2023-12-04T05:59:40;6.566666666666666;6.283333333333333;
46381;PMS5003;66809;52.974;-2.514;2023-12-04T06:01:41;6.583333333333333;6.283333333333333;
46381;PMS5003;66809;52.974;-2.514;2023-12-04T06:03:41;6.55;6.233333333333333;
46381;PMS5003;66809;52.974;-2.514;2023-12-04T06:05:40;6.55;6.233333333333333;
46381;PMS5003;66809;52.974;-2.514;2023-12-04T06:07:41;6.5;6.216666666666667;
46381;PMS5003;66809;52.974;-2.514;2023-12-04T06:09:41;6.5;6.233333333333333;
46381;PMS5003;66809;52.974;-2.514;2023-12-04T06:11:40;6.55;6.233333333333333;
46381;PMS5003;66809;52.974;-2.514;2023-12-04T06:13:41;6.6;6.266666666666667;
46381;PMS5003;66809;52.974;-2.514;2023-12-04T06:15:41;6.583333333333333;6.25;
46381;PMS5003;66809;52.974;-2.514;2023-12-04T06:17:41;6.583333333333333;6.3;
46381;PMS5003;66809;52.974;-2.514;2023-12-04T06:19:41;6.516666666666667;6.266666666666667;
46381;PMS5003;66809;52.974;-2.514;2023-12-04T06:21:41;6.566666666666666;6.316666666666666;
46381;PMS5003;66809;52.974;-2.514;2023-12-04T06:23:41;6.533333333333333;6.283333333333333;
46381;PMS5003;66809;52.974;-2.514;2023-12-04T06:25:41;6.6;6.283333333333333;
46381;PMS5003;66809;52.974;-2.514;2023-12-04T06:27:41;6.616666666666666;6.3;
46381;PMS5003;66809;52.974;-2.514;2023-12-04T06:29:41;6.633333333333334;6.3;
46381;PMS5003;66809;52.974;-2.514;2023-12-04T06:31:41;6.583333333333333;6.283333333333333;
46381;PMS5003;66809;52.974;-2.514;2023-12-04T06:33:41;6.55;6.25;
46381;PMS5003;66809;52.974;-2.514;2023-12-04T06:35:41;6.516666666666667;6.216666666666667;
46381;PMS5003;66809;52.974;-2.514;2023-12-04T06:37:41;6.4;6.116666666666666;
46381;PMS5003;66809;52.974;-2.514;2023-12-04T06:39:41;6.366666666666666;6.1;
46381;PMS5003;66809;52.974;-2.514;2023-12-04T06:41:41;6.35;6.083333333333333;
46381;PMS5003;66809;52.974;-2.514;2023-12-04T06:43:41;6.35;6.066666666666666;
46381;PMS5003;66809;52.974;-2.514;2023-12-04T06:45:40;6.316666666666666;6.016666666666667;
46381;PMS5003;66809;52.974;-2.514;2023-12-04T06:47:40;6.266666666666667;5.95;
46381;PMS5003;66809;52.974;-2.514;2023-12-04T06:49:40;6.166666666666667;5.85;
46381;PMS5003;66809;52.974;-2.514;2023-12-04T06:51:41;6.15;5.833333333333333;
46381;PMS5003;66809;52.974;-2.514;2023-12-04T06:53:41;6.083333333333333;5.783333333333333;
46381;PMS5003;66809;52.974;-2.514;2023-12-04T06:55:40;6.066666666666666;5.75;
46381;PMS5003;66809;52.974;-2.514;2023-12-04T06:57:41;6.066666666666666;5.733333333333333;
46381;PMS5003;66809;52.974;-2.514;2023-12-04T06:59:41;6.033333333333333;5.683333333333334;
46381;PMS5003;66809;52.974;-2.514;2023-12-04T07:01:41;5.933333333333334;5.6;
46381;PMS5003;66809;52.974;-2.514;2023-12-04T07:03:40;5.933333333333334;5.616666666666666;
46381;PMS5003;66809;52.974;-2.514;2023-12-04T07:05:41;5.883333333333334;5.566666666666666;
46381;PMS5003;66809;52.974;-2.514;2023-12-04T07:07:41;5.8;5.5;
46381;PMS5003;66809;52.974;-2.514;2023-12-04T07:09:41;5.733333333333333;5.4;
46381;PMS5003;66809;52.974;-2.514;2023-12-04T07:11:41;5.666666666666667;5.35;
46381;PMS5003;66809;52.974;-2.514;2023-12-04T07:13:41;5.616666666666666;5.316666666666666;
46381;PMS5003;66809;52.974;-2.514;2023-12-04T07:15:41;5.733333333333333;5.383333333333334;
46381;PMS5003;66809;52.974;-2.514;2023-12-04T07:17:41;6.05;5.583333333333333;
46381;PMS5003;66809;52.974;-2.514;2023-12-04T07:19:40;6.166666666666667;5.683333333333334;
46381;PMS5003;66809;52.974;-2.514;2023-12-04T07:21:40;6.25;5.683333333333334;
46381;PMS5003;66809;52.974;-2.514;2023-12-04T07:23:41;6.4;5.783333333333333;
46381;PMS5003;66809;52.974;-2.514;2023-12-04T07:25:41;6.35;5.8;
46381;PMS5003;66809;52.974;-2.514;2023-12-04T07:27:41;6.55;5.966666666666667;
46381;PMS5003;66809;52.974;-2.514;2023-12-04T07:29:40;6.65;6.066666666666666;
46381;PMS5003;66809;52.974;-2.514;2023-12-04T07:31:41;6.75;6.15;
46381;PMS5003;66809;52.974;-2.514;2023-12-04T07:33:41;6.85;6.25;
46381;PMS5003;66809;52.974;-2.514;2023-12-04T07:35:40;7.05;6.433333333333334;
46381;PMS5003;66809;52.974;-2.514;2023-12-04T07:37:41;7.266666666666667;6.633333333333334;
46381;PMS5003;66809;52.974;-2.514;2023-12-04T07:39:41;7.55;6.916666666666667;
46381;PMS5003;66809;52.974;-2.514;2023-12-04T07:41:41;7.916666666666667;7.25;
46381;PMS5003;66809;52.974;-2.514;2023-12-04T07:43:41;8.066666666666666;7.4;
46381;PMS5003;66809;52.974;-2.514;2023-12-04T07:45:41;8.183333333333334;7.5;
46381;PMS5003;66809;52.974;-2.514;2023-12-04T07:47:41;8.266666666666667;7.6;
46381;PMS5003;66809;52.974;-2.514;2023-12-04T07:49:41;8.3;7.633333333333334;
46381;PMS5003;66809;52.974;-2.514;2023-12-04T07:51:40;8.333333333333334;7.666666666666667;
46381;PMS5003;66809;52.974;-2.514;2023-12-04T07:53:41;8.383333333333333;7.7;
46381;PMS5003;66809;52.974;-2.514;2023-12-04T07:55:41;8.483333333333333;7.8;
46381;PMS5003;66809;52.974;-2.514;2023-12-04T07:57:40;8.5;7.816666666666666;
46381;PMS5003;66809;52.974;-2.514;2023-12-04T07:59:41;8.583333333333334;7.916666666666667;
46381;PMS5003;66809;52.974;-2.514;2023-12-04T08:01:41;8.6;7.933333333333334;
46381;PMS5003;66809;52.974;-2.514;2023-12-04T08:03:40;8.566666666666666;7.9;
46381;PMS5003;66809;52.974;-2.514;2023-12-04T08:05:41;8.6;7.933333333333334;
46381;PMS5003;66809;52.974;-2.514;2023-12-04T08:07:41;8.65;7.95;
46381;PMS5003;66809;52.974;-2.514;2023-12-04T08:09:41;8.716666666666667;8.016666666666667;
46381;PMS5003;66809;52.974;-2.514;2023-12-04T08:11:40;8.716666666666667;8.05;
46381;PMS5003;66809;52.974;-2.514;2023-12-04T08:13:41;8.85;8.166666666666666;
46381;PMS5003;66809;52.974;-2.514;2023-12-04T08:15:41;9.016666666666667;8.333333333333334;
46381;PMS5003;66809;52.974;-2.514;2023-12-04T08:17:41;8.816666666666666;8.233333333333333;
46381;PMS5003;66809;52.974;-2.514;2023-12-04T08:19:41;8.75;8.166666666666666;
46381;PMS5003;66809;52.974;-2.514;2023-12-04T08:21:40;8.8;8.216666666666667;
46381;PMS5003;66809;52.974;-2.514;2023-12-04T08:23:41;8.866666666666667;8.283333333333333;
46381;PMS5003;66809;52.974;-2.514;2023-12-04T08:25:41;8.8;8.216666666666667;
46381;PMS5003;66809;52.974;-2.514;2023-12-04T08:27:41;8.65;8.066666666666666;
46381;PMS5003;66809;52.974;-2.514;2023-12-04T08:29:40;8.633333333333333;8.033333333333333;
46381;PMS5003;66809;52.974;-2.514;2023-12-04T08:31:41;8.7;8.066666666666666;
46381;PMS5003;66809;52.974;-2.514;2023-12-04T08:33:41;8.783333333333333;8.133333333333333;
46381;PMS5003;66809;52.974;-2.514;2023-12-04T08:35:41;8.9;8.166666666666666;
46381;PMS5003;66809;52.974;-2.514;2023-12-04T08:37:40;9.166666666666666;8.233333333333333;
46381;PMS5003;66809;52.974;-2.514;2023-12-04T08:39:41;9.0;8.033333333333333;
46381;PMS5003;66809;52.974;-2.514;2023-12-04T08:41:44;8.833333333333334;7.85;
46381;PMS5003;66809;52.974;-2.514;2023-12-04T08:43:41;8.8;7.8;
46381;PMS5003;66809;52.974;-2.514;2023-12-04T08:45:41;8.883333333333333;7.783333333333333;
46381;PMS5003;66809;52.974;-2.514;2023-12-04T08:47:40;8.95;7.816666666666666;
46381;PMS5003;66809;52.974;-2.514;2023-12-04T08:49:41;9.016666666666667;7.833333333333333;
46381;PMS5003;66809;52.974;-2.514;2023-12-04T08:51:41;9.05;7.833333333333333;
46381;PMS5003;66809;52.974;-2.514;2023-12-04T08:53:40;9.233333333333333;7.983333333333333;
46381;PMS5003;66809;52.974;-2.514;2023-12-04T08:55:41;9.283333333333333;7.933333333333334;
46381;PMS5003;66809;52.974;-2.514;2023-12-04T08:57:41;9.3;7.95;
46381;PMS5003;66809;52.974;-2.514;2023-12-04T08:59:41;9.266666666666667;7.916666666666667;
46381;PMS5003;66809;52.974;-2.514;2023-12-04T09:01:41;9.516666666666667;8.066666666666666;
46381;PMS5003;66809;52.974;-2.514;2023-12-04T09:03:40;9.65;8.166666666666666;
46381;PMS5003;66809;52.974;-2.514;2023-12-04T09:05:41;9.716666666666667;8.2;
46381;PMS5003;66809;52.974;-2.514;2023-12-04T09:07:41;9.866666666666667;8.333333333333334;
46381;PMS5003;66809;52.974;-2.514;2023-12-04T09:09:41;9.883333333333333;8.333333333333334;
46381;PMS5003;66809;52.974;-2.514;2023-12-04T09:11:41;10.083333333333334;8.466666666666667;
46381;PMS5003;66809;52.974;-2.514;2023-12-04T09:13:41;10.2;8.566666666666666;
46381;PMS5003;66809;52.974;-2.514;2023-12-04T09:15:40;10.216666666666667;8.466666666666667;
46381;PMS5003;66809;52.974;-2.514;2023-12-04T09:17:41;10.566666666666666;8.533333333333333;
46381;PMS5003;66809;52.974;-2.514;2023-12-04T09:19:41;10.65;8.616666666666667;
46381;PMS5003;66809;52.974;-2.514;2023-12-04T09:21:40;10.9;8.783333333333333;
46381;PMS5003;66809;52.974;-2.514;2023-12-04T09:23:41;11.233333333333333;8.933333333333334;
46381;PMS5003;66809;52.974;-2.514;2023-12-04T09:28:12;17.5;10.285714285714286;
46381;PMS5003;66809;52.974;-2.514;2023-12-04T09:30:12;17.875;10.6875;
46381;PMS5003;66809;52.974;-2.514;2023-12-04T09:32:12;18.444444444444443;11.055555555555555;
46381;PMS5003;66809;52.974;-2.514;2023-12-04T09:34:12;18.4;11.5;
46381;PMS5003;66809;52.974;-2.514;2023-12-04T09:36:12;18.136363636363637;11.454545454545455;
46381;PMS5003;66809;52.974;-2.514;2023-12-04T09:38:12;18.416666666666668;11.75;
46381;PMS5003;66809;52.974;-2.514;2023-12-04T09:40:12;18.23076923076923;11.692307692307692;
46381;PMS5003;66809;52.974;-2.514;2023-12-04T09:42:12;17.821428571428573;11.5;